Latest Weather Observations for Cape Flattery

IDQ60801

Issued at 6:05 am EST Wednesday 24 September 2014 (issued every 30 minutes, with the page automatically refreshed every 10 minutes)

About weather observations | Map of weather stations | Latest weather observations for QLD | Other Formats
Station Details ID: 031213 Name: CAPE FLATTERY Lat: -14.97 Lon: 145.31 Height: 18.5 m
Data from the previous 72 hours. | See also: Recent months at Cape Flattery
Date/Time
EST
Temp
°C
App
Temp
°C
Dew
Point
Rel
Hum
%
Delta-T
°C
Wind Press
QNH
hPa
Press
MSL
hPa
Rain
since 9 am
mm
Dir
 
Spd
km/h
Gust
km/h
Spd
kts
Gust
kts
24/06:00am 23.3 22.6 20.2 83 2.0 ESE 24 35 13 19 1016.3 1016.2 1.6
24/05:30am 23.3 22.2 20.2 83 2.0 ESE 26 37 14 20 1016.1 1016.0 1.6
24/05:00am 23.1 21.2 20.2 84 1.9 ESE 30 41 16 22 1015.8 1015.7 1.6
24/04:30am 23.2 21.8 20.5 85 1.8 ESE 28 37 15 20 1015.5 1015.4 1.6
24/04:00am 23.1 21.5 20.1 83 1.9 ESE 28 37 15 20 1015.5 1015.4 1.6
24/03:30am 22.9 21.9 20.4 86 1.6 ESE 26 35 14 19 1015.5 1015.4 1.6
24/03:00am 22.9 21.4 20.2 85 1.7 ESE 28 39 15 21 1015.4 1015.3 1.6
24/02:30am 23.4 22.4 20.5 84 1.9 SE 26 39 14 21 1015.5 1015.4 1.6
24/02:00am 23.1 21.9 20.1 83 1.9 ESE 26 37 14 20 1015.8 1015.7 1.6
24/01:30am 23.1 21.5 20.1 83 1.9 ESE 28 41 15 22 1015.9 1015.8 1.6
24/01:00am 23.3 21.9 19.7 80 2.3 ESE 26 41 14 22 1016.1 1016.0 1.6
24/12:30am 23.2 22.5 20.2 83 1.9 ESE 24 39 13 21 1016.5 1016.4 1.6
24/12:00am 22.9 22.6 20.4 86 1.6 ESE 22 32 12 17 1016.7 1016.6 1.6
 
Date/Time
EST
Temp
°C
App
Temp
°C
Dew
Point
Rel
Hum
%
Delta-T
°C
Wind Press
QNH
hPa
Press
MSL
hPa
Rain
since 9 am
mm
Dir
 
Spd
km/h
Gust
km/h
Spd
kts
Gust
kts
23/11:30pm 22.3 20.4 20.2 88 1.4 SE 30 43 16 23 1017.4 1017.3 1.6
23/11:00pm 22.5 21.4 20.2 87 1.5 ESE 26 41 14 22 1017.6 1017.5 1.6
23/10:30pm 21.9 20.0 20.2 90 1.1 ESE 30 44 16 24 1017.6 1017.5 1.6
23/10:06pm 21.9 20.4 20.2 90 1.1 E 28 46 15 25 1017.6 1017.5 1.6
23/10:00pm 22.1 20.7 20.4 90 1.1 ESE 28 43 15 23 1017.6 1017.5 1.6
23/09:35pm 23.2 21.8 20.5 85 1.8 ESE 28 46 15 25 1017.5 1017.4 1.2
23/09:30pm 23.6 22.5 20.3 82 2.1 ESE 26 37 14 20 1017.4 1017.3 1.0
23/09:00pm 23.9 22.4 21.0 84 1.9 SE 30 41 16 22 1017.2 1017.1 1.0
23/08:30pm 23.9 22.6 21.4 86 1.6 SE 30 44 16 24 1016.8 1016.7 1.0
23/08:00pm 23.5 22.6 21.4 88 1.4 SE 28 41 15 22 1016.5 1016.4 1.0
23/07:30pm 22.9 21.1 20.4 86 1.6 SE 30 41 16 22 1016.4 1016.3 1.0
23/07:00pm 22.6 21.4 20.9 90 1.1 ESE 28 41 15 22 1016.0 1015.9 1.0
23/06:55pm 22.5 20.7 20.4 88 1.4 ESE 30 48 16 26 1015.9 1015.8 1.0
23/06:30pm 24.7 22.1 20.6 78 2.7 SE 35 46 19 25 1015.4 1015.3 0.0
23/06:00pm 24.9 22.6 20.6 77 2.8 SE 33 43 18 23 1015.2 1015.1 0.0
23/05:56pm 24.9 22.6 20.6 77 2.8 SE 33 52 18 28 1015.2 1015.1 0.0
23/05:30pm 25.1 22.8 20.6 76 2.9 SE 33 43 18 23 1015.2 1015.1 0.0
23/05:00pm 25.3 23.0 20.5 75 3.1 SE 33 44 18 24 1015.1 1015.0 0.0
23/04:30pm 25.7 22.9 20.3 72 3.5 SE 35 46 19 25 1015.1 1015.0 0.0
23/04:00pm 26.2 24.0 20.7 71 3.6 SE 33 46 18 25 1015.0 1014.9 0.0
23/03:30pm 26.8 24.5 20.6 69 4.1 SE 33 46 18 25 1015.0 1014.9 0.0
23/03:00pm 26.6 23.9 20.4 69 4.1 SE 35 46 19 25 1014.8 1014.7 0.0
23/02:30pm 27.3 24.4 20.1 64 4.7 SE 35 46 19 25 1014.8 1014.7 0.0
23/02:00pm 27.7 24.8 20.8 66 4.6 SSE 37 48 20 26 1014.9 1014.8 0.0
23/01:30pm 28.0 24.7 20.8 65 4.8 SSE 39 54 21 29 1015.1 1015.0 0.0
23/01:00pm 27.9 24.7 20.2 63 5.0 SE 37 48 20 26 1015.6 1015.5 0.0
23/12:30pm 27.9 24.5 19.9 61 5.2 SE 37 46 20 25 1016.1 1016.0 0.0
23/12:00pm 28.0 25.4 20.6 64 4.9 SE 35 46 19 25 1016.4 1016.3 0.0
23/11:30am 27.8 24.7 20.4 64 4.9 SE 37 46 20 25 1016.8 1016.7 0.0
23/11:00am 27.1 24.3 20.2 66 4.5 SE 35 46 19 25 1017.4 1017.3 0.0
23/10:30am 27.5 24.6 20.1 64 4.8 SE 35 48 19 26 1017.6 1017.5 0.0
23/10:00am 27.7 25.9 20.3 64 4.9 SE 30 41 16 22 1017.8 1017.7 0.0
23/09:30am 26.9 24.9 20.7 69 4.1 SE 32 44 17 24 1017.7 1017.6 0.0
23/09:00am 26.5 23.9 19.9 67 4.3 SE 33 46 18 25 1017.7 1017.6 0.0
23/08:30am 26.0 23.7 20.1 70 3.8 SE 32 44 17 24 1017.6 1017.5 0.0
23/08:00am 24.9 22.2 19.7 73 3.4 SE 33 46 18 25 1017.2 1017.1 0.0
23/07:30am 24.8 23.0 20.3 76 2.9 SE 30 43 16 23 1016.6 1016.5 0.0
23/07:00am 24.3 22.4 20.2 78 2.7 SE 30 43 16 23 1016.0 1015.9 0.0
23/06:30am 23.7 22.3 20.4 82 2.1 SE 28 39 15 21 1015.7 1015.6 0.0
23/06:00am 23.6 22.1 20.3 82 2.1 SE 28 41 15 22 1015.2 1015.1 0.0
23/05:30am 23.7 21.9 20.4 82 2.1 SE 30 41 16 22 1014.8 1014.7 0.0
23/05:00am 23.6 22.1 20.3 82 2.1 SE 28 39 15 21 1014.6 1014.5 0.0
23/04:30am 23.6 21.8 20.3 82 2.1 SE 30 39 16 21 1014.4 1014.3 0.0
23/04:00am 23.7 22.4 20.6 83 2.0 SE 28 39 15 21 1014.3 1014.2 0.0
23/03:30am 23.6 21.4 20.3 82 2.1 SE 32 44 17 24 1014.2 1014.1 0.0
23/03:00am 23.6 22.1 20.3 82 2.1 SE 28 37 15 20 1014.4 1014.3 0.0
23/02:30am 23.7 22.3 20.4 82 2.1 SE 28 41 15 22 1014.4 1014.3 0.0
23/02:00am 23.8 22.3 20.3 81 2.3 SE 28 41 15 22 1014.5 1014.4 0.0
23/01:30am 23.7 23.1 20.4 82 2.1 SE 24 35 13 19 1014.9 1014.8 0.0
23/01:00am 23.8 22.4 20.5 82 2.1 SE 28 37 15 20 1015.3 1015.2 0.0
23/12:30am 23.7 23.1 20.6 83 2.0 SE 24 33 13 18 1015.5 1015.4 0.0
23/12:00am 23.8 22.8 20.5 82 2.1 SE 26 35 14 19 1015.7 1015.6 0.0
 
Date/Time
EST
Temp
°C
App
Temp
°C
Dew
Point
Rel
Hum
%
Delta-T
°C
Wind Press
QNH
hPa
Press
MSL
hPa
Rain
since 9 am
mm
Dir
 
Spd
km/h
Gust
km/h
Spd
kts
Gust
kts
22/11:30pm 24.0 22.6 20.5 81 2.3 SE 28 39 15 21 1015.8 1015.7 0.0
22/11:00pm 23.9 22.5 20.4 81 2.3 SE 28 39 15 21 1016.0 1015.9 0.0
22/10:30pm 23.9 22.4 20.2 80 2.4 SE 28 39 15 21 1016.1 1016.0 0.0
22/10:00pm 23.9 22.9 20.4 81 2.3 SE 26 39 14 21 1016.2 1016.1 0.0
22/09:30pm 24.1 23.1 20.4 80 2.4 SE 26 37 14 20 1016.1 1016.0 0.0
22/09:00pm 23.9 22.5 20.4 81 2.3 SE 28 39 15 21 1015.8 1015.7 0.0
22/08:30pm 24.0 22.2 20.3 80 2.4 SE 30 39 16 21 1015.5 1015.4 0.0
22/08:00pm 24.1 23.1 20.4 80 2.4 SE 26 39 14 21 1015.4 1015.3 0.0
22/07:30pm 24.0 22.4 20.1 79 2.5 SE 28 39 15 21 1015.1 1015.0 0.0
22/07:00pm 23.9 22.8 20.2 80 2.4 SE 26 35 14 19 1014.9 1014.8 0.0
22/06:30pm 24.0 22.1 20.1 79 2.5 SE 30 39 16 21 1014.6 1014.5 0.0
22/06:00pm 24.3 22.3 20.0 77 2.8 SE 30 41 16 22 1014.2 1014.1 0.0
22/05:30pm 24.8 22.3 19.8 74 3.2 SE 32 41 17 22 1014.1 1014.0 0.0
22/05:00pm 25.3 22.8 19.7 71 3.6 SE 32 43 17 23 1013.9 1013.8 0.0
22/04:30pm 25.6 23.3 20.2 72 3.5 SSE 32 43 17 23 1013.6 1013.5 0.0
22/04:00pm 26.4 23.8 20.0 68 4.2 SSE 33 43 18 23 1013.6 1013.5 0.0
22/03:30pm 26.6 23.9 19.2 64 4.8 SSE 32 39 17 21 1013.5 1013.4 0.0
22/03:00pm 27.2 24.6 20.0 64 4.7 SSE 33 43 18 23 1013.3 1013.2 0.0
22/02:30pm 26.7 23.8 19.3 64 4.8 SSE 33 43 18 23 1013.7 1013.6 0.0
22/02:00pm 26.6 23.6 19.0 63 4.9 SSE 33 41 18 22 1013.9 1013.8 0.0
22/01:30pm 26.9 23.9 19.0 62 5.1 SSE 33 43 18 23 1014.4 1014.3 0.0
22/01:00pm 28.0 25.8 19.5 60 5.5 SE 30 44 16 24 1014.9 1014.8 0.0
22/12:30pm 27.5 24.4 19.6 62 5.1 SSE 35 44 19 24 1015.4 1015.3 0.0
22/12:00pm 27.1 24.2 19.2 62 5.1 SSE 33 43 18 23 1016.0 1015.9 0.0
22/11:30am 27.4 24.7 19.2 61 5.3 SSE 32 41 17 22 1016.4 1016.3 0.0
22/11:00am 26.8 23.5 19.2 63 4.9 SSE 35 43 19 23 1016.8 1016.7 0.0
22/10:30am 26.8 23.5 18.4 60 5.3 SE 33 43 18 23 1017.0 1016.9 0.0
22/10:00am 26.7 23.8 18.8 62 5.1 SSE 32 39 17 21 1017.1 1017.0 0.0
22/09:30am 26.7 24.4 19.3 64 4.8 SSE 30 39 16 21 1017.1 1017.0 0.0
22/09:00am 26.1 23.7 19.2 65 4.4 SE 30 39 16 21 1016.9 1016.8 0.0
22/08:30am 25.8 23.7 19.0 66 4.4 SE 28 35 15 19 1016.7 1016.6 0.0
22/08:00am 25.3 23.2 19.0 68 4.0 SE 28 35 15 19 1016.6 1016.5 0.0
22/07:30am 24.6 22.9 19.0 71 3.6 SE 26 37 14 20 1016.2 1016.1 0.0
22/07:00am 23.9 22.5 18.8 73 3.2 SE 24 35 13 19 1016.1 1016.0 0.0
22/06:30am 23.1 21.5 18.4 75 3.0 SE 24 39 13 21 1015.8 1015.7 0.0
22/06:00am 23.1 21.5 18.4 75 3.0 SE 24 35 13 19 1015.4 1015.3 0.0
22/05:30am 22.9 21.3 18.4 76 2.8 SE 24 32 13 17 1015.2 1015.1 0.0
22/05:00am 23.1 20.7 18.2 74 3.1 SE 28 41 15 22 1014.8 1014.7 0.0
22/04:30am 23.2 21.2 18.3 74 3.1 SE 26 35 14 19 1014.7 1014.6 0.0
22/04:00am 23.3 21.0 18.4 74 3.1 SE 28 37 15 20 1014.6 1014.5 0.0
22/03:30am 23.3 21.5 18.8 76 2.8 SE 26 39 14 21 1014.6 1014.5 0.0
22/03:00am 23.2 21.4 18.7 76 2.8 SE 26 35 14 19 1014.7 1014.6 0.0
22/02:30am 23.2 21.8 18.9 77 2.7 SE 24 35 13 19 1014.8 1014.7 0.0
22/02:00am 23.3 21.6 19.0 77 2.7 SE 26 37 14 20 1015.2 1015.1 0.0
22/01:30am 23.4 22.0 18.9 76 2.9 SE 24 35 13 19 1015.3 1015.2 0.0
22/01:00am 23.6 21.4 18.7 74 3.1 SE 28 41 15 22 1015.7 1015.6 0.0
22/12:30am 23.6 21.5 18.9 75 3.0 SE 28 41 15 22 1015.9 1015.8 0.0
22/12:00am 24.0 22.0 19.1 74 3.1 SE 28 37 15 20 1016.3 1016.2 0.0
 
Date/Time
EST
Temp
°C
App
Temp
°C
Dew
Point
Rel
Hum
%
Delta-T
°C
Wind Press
QNH
hPa
Press
MSL
hPa
Rain
since 9 am
mm
Dir
 
Spd
km/h
Gust
km/h
Spd
kts
Gust
kts
21/11:30pm 24.1 22.1 19.2 74 3.1 SE 28 35 15 19 1016.7 1016.6 0.0
21/11:00pm 23.7 21.3 19.0 75 3.0 SE 30 39 16 21 1016.8 1016.7 0.0
21/10:30pm 23.8 21.7 18.9 74 3.1 SE 28 37 15 20 1017.0 1016.9 0.0
21/10:00pm 23.8 21.5 19.3 76 2.9 SE 30 39 16 21 1016.9 1016.8 0.0
21/09:30pm 23.8 21.5 19.3 76 2.9 SE 30 39 16 21 1016.8 1016.7 0.0
21/09:00pm 23.9 21.5 19.2 75 3.0 SE 30 39 16 21 1016.7 1016.6 0.0
21/08:30pm 24.0 21.1 19.3 75 3.0 SE 33 44 18 24 1016.3 1016.2 0.0
21/08:00pm 23.9 21.9 19.2 75 3.0 SE 28 41 15 22 1016.2 1016.1 0.0
21/07:30pm 23.9 21.6 19.4 76 2.9 SE 30 41 16 22 1015.9 1015.8 0.0
21/07:00pm 24.0 22.0 19.1 74 3.1 SE 28 43 15 23 1015.7 1015.6 0.0
21/06:30pm 24.0 22.4 19.3 75 3.0 SE 26 35 14 19 1015.3 1015.2 0.0
21/06:00pm 24.3 21.7 18.7 71 3.6 SE 30 39 16 21 1015.0 1014.9 0.0
21/05:30pm 24.7 22.5 18.6 69 3.9 SE 28 35 15 19 1014.7 1014.6 0.0
21/05:00pm 25.3 22.6 18.5 66 4.3 SE 30 39 16 21 1014.5 1014.4 0.0
21/04:30pm 25.6 22.8 18.3 64 4.6 SE 30 39 16 21 1014.3 1014.2 0.0
21/04:00pm 25.8 23.1 18.5 64 4.6 SE 30 39 16 21 1014.3 1014.2 0.0
21/03:30pm 26.0 23.9 18.9 65 4.5 SE 28 41 15 22 1014.4 1014.3 0.0
21/03:00pm 25.9 23.0 18.8 65 4.5 SE 32 41 17 22 1014.4 1014.3 0.0
21/02:30pm 27.0 24.2 19.1 62 5.1 SE 32 41 17 22 1014.8 1014.7 0.0
21/02:00pm 27.7 25.1 19.5 61 5.3 SE 32 41 17 22 1015.2 1015.1 0.0
21/01:30pm 26.5 23.7 19.4 65 4.6 SSE 33 43 18 23 1015.4 1015.3 0.0
21/01:00pm 26.2 23.6 19.8 68 4.1 SSE 33 43 18 23 1016.1 1016.0 0.0
21/12:30pm 27.1 24.0 19.7 64 4.8 SSE 35 44 19 24 1016.5 1016.4 0.0
21/12:00pm 27.0 23.9 19.6 64 4.8 SSE 35 43 19 23 1017.1 1017.0 0.0
21/11:30am 26.3 23.2 18.9 63 4.7 SSE 33 44 18 24 1017.4 1017.3 0.0
21/11:00am 27.3 23.9 19.1 61 5.3 SE 35 44 19 24 1017.5 1017.4 0.0
21/10:30am 26.2 23.9 19.3 65 4.4 SE 30 43 16 23 1017.8 1017.7 0.0
21/10:00am 25.8 23.8 19.2 67 4.2 SE 28 39 15 21 1017.9 1017.8 0.0
21/09:30am 25.5 22.8 19.2 68 4.0 SE 32 41 17 22 1017.7 1017.6 0.0
21/09:00am 25.5 22.8 19.2 68 4.0 SE 32 41 17 22 1017.5 1017.4 0.0
21/08:30am 25.4 22.5 19.3 69 3.9 SE 33 43 18 23 1017.3 1017.2 0.0
21/08:00am 24.8 22.2 19.6 73 3.3 SE 32 43 17 23 1016.7 1016.6 0.0
21/07:30am 24.3 21.8 19.8 76 2.9 SE 32 39 17 21 1016.2 1016.1 0.0
21/07:00am 24.0 22.2 19.5 76 2.9 SE 28 35 15 19 1015.9 1015.8 0.0
21/06:30am 23.8 21.4 19.1 75 3.0 SE 30 41 16 22 1015.6 1015.5 0.0

Other Formats:

Comma delimited format used in spreadsheet applications
http://www.bom.gov.au/fwo/IDQ60801/IDQ60801.94188.axf

JavaScript Object Notation format (JSON) in row-major order
http://www.bom.gov.au/fwo/IDQ60801/IDQ60801.94188.json